createdAt,value
2023-01-28T00:01:46.099Z,0.10
2023-01-28T00:04:12.887Z,0.10
2023-01-28T00:06:39.486Z,0.10
2023-01-28T00:09:06.276Z,0.20
2023-01-28T00:11:33.627Z,0.10
2023-01-28T00:14:00.354Z,0.00
2023-01-28T00:16:27.843Z,-0.10
2023-01-28T00:18:55.040Z,0.10
2023-01-28T00:21:21.813Z,0.10
2023-01-28T00:23:54.202Z,0.00
2023-01-28T00:26:22.637Z,0.20
2023-01-28T00:28:49.751Z,0.20
2023-01-28T00:31:22.283Z,0.20
2023-01-28T00:33:50.873Z,0.20
2023-01-28T00:36:18.860Z,0.20
2023-01-28T00:38:53.789Z,0.40
2023-01-28T00:41:22.467Z,0.40
2023-01-28T00:43:51.497Z,0.50
2023-01-28T00:46:21.440Z,0.50
2023-01-28T00:48:48.558Z,0.60
2023-01-28T00:51:20.583Z,0.50
2023-01-28T00:53:49.389Z,0.40
2023-01-28T00:56:17.920Z,0.40
2023-01-28T00:58:44.999Z,0.40
2023-01-28T01:01:30.413Z,0.40
2023-01-28T01:04:03.145Z,0.30
2023-01-28T01:06:36.376Z,0.30
2023-01-28T01:09:07.368Z,0.30
2023-01-28T01:11:35.612Z,0.20
2023-01-28T01:14:05.043Z,0.20
2023-01-28T01:16:33.350Z,0.30
2023-01-28T01:19:00.170Z,0.30
2023-01-28T01:21:28.821Z,0.30
2023-01-28T01:23:55.878Z,0.30
2023-01-28T01:26:22.752Z,0.30
2023-01-28T01:28:51.765Z,0.40
2023-01-28T01:31:20.297Z,0.40
2023-01-28T01:33:48.759Z,0.40
2023-01-28T01:36:17.192Z,0.40
2023-01-28T01:38:44.745Z,0.40
2023-01-28T01:41:24.544Z,0.30
2023-01-28T01:44:05.625Z,0.30
2023-01-28T01:46:41.975Z,0.40
2023-01-28T01:49:28.938Z,0.30
2023-01-28T01:52:10.467Z,0.30
2023-01-28T01:54:41.503Z,0.30
2023-01-28T01:57:12.463Z,0.30
2023-01-28T01:59:42.199Z,0.30
2023-01-28T02:02:11.472Z,0.30
2023-01-28T02:04:44.529Z,0.30
2023-01-28T02:07:18.514Z,0.30
2023-01-28T02:09:45.199Z,0.30
2023-01-28T02:12:20.838Z,0.40
2023-01-28T02:15:19.039Z,0.30
2023-01-28T02:17:46.551Z,0.40
2023-01-28T02:20:22.169Z,0.30
2023-01-28T02:23:03.194Z,0.30
2023-01-28T02:25:54.300Z,0.20
2023-01-28T02:28:48.755Z,0.20
2023-01-28T02:31:19.696Z,0.10
2023-01-28T02:33:49.210Z,0.20
2023-01-28T02:36:24.992Z,0.20
2023-01-28T02:38:54.579Z,0.20
2023-01-28T02:41:40.972Z,0.30
2023-01-28T02:44:08.135Z,0.30
2023-01-28T02:46:56.065Z,0.20
2023-01-28T02:49:28.196Z,0.10
2023-01-28T02:52:07.677Z,0.10
2023-01-28T02:54:55.390Z,0.10
2023-01-28T02:57:53.283Z,0.10
2023-01-28T03:00:27.767Z,0.20
2023-01-28T03:03:08.495Z,0.10
2023-01-28T03:05:41.690Z,0.10
2023-01-28T03:08:30.251Z,0.20
2023-01-28T03:11:16.981Z,0.20
2023-01-28T03:14:04.201Z,0.10
2023-01-28T03:16:51.049Z,0.10
2023-01-28T03:19:38.556Z,0.10
2023-01-28T03:22:23.872Z,0.10
2023-01-28T03:25:11.117Z,0.10
2023-01-28T03:28:12.353Z,0.10
2023-01-28T03:31:09.911Z,0.20
2023-01-28T03:34:04.054Z,0.20
2023-01-28T03:36:49.938Z,0.20
2023-01-28T03:39:35.508Z,0.20
2023-01-28T03:42:14.029Z,0.20
2023-01-28T03:44:53.091Z,0.20
2023-01-28T03:47:26.550Z,0.10
2023-01-28T03:49:55.334Z,0.20
2023-01-28T03:52:25.493Z,0.20
2023-01-28T03:54:55.247Z,0.20
2023-01-28T03:57:24.374Z,0.30
2023-01-28T03:59:52.639Z,0.40
2023-01-28T04:02:21.852Z,0.40
2023-01-28T04:04:50.426Z,0.40
2023-01-28T04:07:18.569Z,0.40
2023-01-28T04:10:11.924Z,0.40
2023-01-28T04:12:54.196Z,0.20
2023-01-28T04:15:21.023Z,0.10
2023-01-28T04:17:49.308Z,0.20
2023-01-28T04:20:25.219Z,0.20
2023-01-28T04:22:51.938Z,0.30
2023-01-28T04:25:20.445Z,0.40
2023-01-28T04:27:47.963Z,0.30
2023-01-28T04:30:18.647Z,0.30
2023-01-28T04:33:00.932Z,0.40
2023-01-28T04:35:59.894Z,0.40
2023-01-28T04:39:01.163Z,0.30
2023-01-28T04:41:42.552Z,0.30
2023-01-28T04:44:24.949Z,0.20
2023-01-28T04:47:01.923Z,0.20
2023-01-28T04:49:43.752Z,0.20
2023-01-28T04:52:33.539Z,0.20
2023-01-28T04:55:08.927Z,0.20
2023-01-28T04:57:35.810Z,0.30
2023-01-28T05:00:05.593Z,0.20
2023-01-28T05:02:32.253Z,0.20
2023-01-28T05:04:59.161Z,0.10
2023-01-28T05:07:38.106Z,0.10
2023-01-28T05:10:05.720Z,0.10
2023-01-28T05:12:33.959Z,0.10
2023-01-28T05:15:04.242Z,0.10
2023-01-28T05:17:30.997Z,0.30
2023-01-28T05:19:57.821Z,0.40
2023-01-28T05:22:27.694Z,0.30
2023-01-28T05:25:16.392Z,0.30
2023-01-28T05:27:43.694Z,0.30
2023-01-28T05:30:11.444Z,0.30
2023-01-28T05:32:38.695Z,0.30
2023-01-28T05:35:05.883Z,0.30
2023-01-28T05:37:33.171Z,0.30
2023-01-28T05:40:00.475Z,0.30
2023-01-28T05:42:27.136Z,0.20
2023-01-28T05:45:02.792Z,0.10
2023-01-28T05:47:58.403Z,0.00
2023-01-28T05:50:38.357Z,0.10
2023-01-28T05:53:11.112Z,0.10
2023-01-28T05:55:40.516Z,0.10
2023-01-28T05:58:07.252Z,0.20
2023-01-28T06:00:34.784Z,0.20
2023-01-28T06:03:03.619Z,0.10
2023-01-28T06:05:30.883Z,0.00
2023-01-28T06:07:58.852Z,-0.10
2023-01-28T06:10:25.846Z,-0.20
2023-01-28T06:12:53.642Z,-0.20
2023-01-28T06:15:44.452Z,-0.20
2023-01-28T06:18:44.721Z,-0.10
2023-01-28T06:21:11.643Z,-0.10
2023-01-28T06:23:38.318Z,-0.10
2023-01-28T06:26:08.175Z,-0.10
2023-01-28T06:28:36.195Z,0.00
2023-01-28T06:31:02.935Z,-0.10
2023-01-28T06:33:30.133Z,0.00
2023-01-28T06:35:56.791Z,0.00
2023-01-28T06:38:23.414Z,0.00
2023-01-28T06:40:55.778Z,-0.10
2023-01-28T06:43:27.901Z,-0.10
2023-01-28T06:45:55.133Z,-0.10
2023-01-28T06:48:21.808Z,-0.20
2023-01-28T06:50:48.883Z,-0.20
2023-01-28T06:53:16.661Z,-0.20
2023-01-28T06:55:43.284Z,-0.20
2023-01-28T06:58:10.406Z,-0.20
2023-01-28T07:00:37.700Z,-0.20
2023-01-28T07:03:04.932Z,-0.10
2023-01-28T07:05:31.596Z,-0.10
2023-01-28T07:07:58.214Z,-0.10
2023-01-28T07:10:24.926Z,0.00
2023-01-28T07:12:51.567Z,0.00
2023-01-28T07:15:18.412Z,-0.10
2023-01-28T07:17:45.882Z,-0.20
2023-01-28T07:20:15.464Z,-0.20
2023-01-28T07:22:43.800Z,-0.20
2023-01-28T07:25:11.929Z,-0.20
2023-01-28T07:27:38.553Z,-0.20
2023-01-28T07:30:05.801Z,0.00
2023-01-28T07:32:32.428Z,-0.10
2023-01-28T07:34:59.015Z,-0.10
2023-01-28T07:37:25.706Z,-0.20
2023-01-28T07:39:52.284Z,-0.10
2023-01-28T07:42:18.938Z,-0.20
2023-01-28T07:44:46.799Z,-0.30
2023-01-28T07:47:13.969Z,-0.30
2023-01-28T07:49:41.095Z,-0.20
2023-01-28T07:52:09.069Z,-0.10
2023-01-28T07:54:35.670Z,-0.20
2023-01-28T07:57:02.436Z,-0.20
2023-01-28T07:59:29.012Z,-0.20
2023-01-28T08:01:55.632Z,-0.10
2023-01-28T08:04:22.447Z,-0.10
2023-01-28T08:06:49.227Z,0.00
2023-01-28T08:09:15.820Z,-0.10
2023-01-28T08:11:42.452Z,0.00
2023-01-28T08:14:10.957Z,0.00
2023-01-28T08:16:37.997Z,0.10
2023-01-28T08:19:04.606Z,0.10
2023-01-28T08:21:31.208Z,-0.10
2023-01-28T08:23:57.873Z,-0.10
2023-01-28T08:26:24.502Z,-0.10
2023-01-28T08:28:51.707Z,-0.10
2023-01-28T08:31:18.643Z,-0.10
2023-01-28T08:33:45.421Z,-0.10
2023-01-28T08:36:12.190Z,-0.10
2023-01-28T08:38:38.799Z,0.00
2023-01-28T08:41:05.385Z,0.20
2023-01-28T08:43:31.964Z,0.30
2023-01-28T08:45:58.716Z,0.40
2023-01-28T08:48:25.521Z,0.50
2023-01-28T08:50:52.112Z,0.60
2023-01-28T08:53:20.169Z,0.50
2023-01-28T08:55:47.452Z,0.50
2023-01-28T08:58:16.398Z,0.50
2023-01-28T09:00:44.868Z,0.40
2023-01-28T09:03:11.700Z,0.30
2023-01-28T09:05:38.735Z,0.40
2023-01-28T09:08:08.515Z,0.50
2023-01-28T09:10:37.380Z,0.40
2023-01-28T09:13:09.227Z,0.40
2023-01-28T09:15:36.890Z,0.50
2023-01-28T09:18:04.529Z,0.50
2023-01-28T09:20:34.718Z,0.40
2023-01-28T09:23:02.333Z,0.20
2023-01-28T09:25:29.360Z,0.10
2023-01-28T09:27:57.040Z,0.10
2023-01-28T09:30:23.781Z,0.20
2023-01-28T09:32:51.854Z,0.30
2023-01-28T09:35:19.363Z,0.40
2023-01-28T09:37:46.805Z,0.50
2023-01-28T09:40:26.826Z,0.70
2023-01-28T09:43:07.609Z,0.70
2023-01-28T09:45:42.537Z,0.70
2023-01-28T09:51:16.151Z,0.90
2023-01-28T09:53:50.020Z,1.10
2023-01-28T09:56:25.976Z,1.30
2023-01-28T09:58:52.793Z,1.70
2023-01-28T10:01:39.589Z,1.60
2023-01-28T10:04:09.357Z,1.30
2023-01-28T10:06:48.823Z,1.30
2023-01-28T10:09:54.519Z,1.10
2023-01-28T10:13:05.455Z,1.10
2023-01-28T10:15:40.712Z,1.00
2023-01-28T10:18:17.648Z,1.00
2023-01-28T10:20:53.222Z,0.90
2023-01-28T10:23:38.689Z,0.90
2023-01-28T10:26:22.685Z,0.80
2023-01-28T10:28:54.835Z,0.80
2023-01-28T10:31:23.990Z,0.90
2023-01-28T10:33:50.710Z,1.00
2023-01-28T10:36:18.216Z,0.90
2023-01-28T10:38:45.206Z,0.90
2023-01-28T10:41:16.841Z,0.80
2023-01-28T10:43:43.622Z,0.70
2023-01-28T10:46:45.564Z,0.60
2023-01-28T10:49:16.886Z,0.70
2023-01-28T10:51:43.926Z,0.70
2023-01-28T10:54:25.618Z,1.00
2023-01-28T10:57:01.638Z,1.10
2023-01-28T10:59:30.714Z,1.00
2023-01-28T11:02:04.156Z,0.90
2023-01-28T11:04:35.812Z,0.90
2023-01-28T11:07:16.406Z,0.70
2023-01-28T11:09:47.719Z,0.60
2023-01-28T11:12:26.838Z,0.60
2023-01-28T11:14:56.382Z,0.70
2023-01-28T11:17:25.781Z,0.80
2023-01-28T11:19:58.928Z,1.00
2023-01-28T11:22:41.481Z,1.10
2023-01-28T11:25:33.775Z,1.30
2023-01-28T11:28:03.035Z,1.30
2023-01-28T11:30:33.955Z,1.20
2023-01-28T11:33:32.240Z,1.10
2023-01-28T11:36:07.093Z,1.10
2023-01-28T11:38:34.395Z,0.80
2023-01-28T11:41:01.205Z,0.80
2023-01-28T11:43:30.868Z,0.80
2023-01-28T11:46:12.748Z,0.70
2023-01-28T11:49:21.128Z,0.70
2023-01-28T11:52:20.828Z,0.60
2023-01-28T11:54:56.881Z,0.40
2023-01-28T11:57:57.737Z,0.60
2023-01-28T12:00:36.240Z,0.80
2023-01-28T12:03:33.115Z,1.10
2023-01-28T12:06:05.989Z,1.10
2023-01-28T12:08:40.851Z,1.10
2023-01-28T12:11:13.126Z,1.10
2023-01-28T12:14:28.529Z,1.20
2023-01-28T12:17:27.298Z,1.10
2023-01-28T12:20:15.860Z,1.00
2023-01-28T12:22:58.113Z,1.00
2023-01-28T12:25:58.594Z,1.10
2023-01-28T12:28:34.147Z,1.10
2023-01-28T12:31:29.986Z,1.30
2023-01-28T12:34:15.558Z,1.30
2023-01-28T12:36:42.169Z,1.30
2023-01-28T12:39:31.320Z,1.40
2023-01-28T12:42:20.216Z,1.50
2023-01-28T12:44:52.707Z,1.60
2023-01-28T12:47:37.230Z,1.60
2023-01-28T12:50:19.269Z,1.50
2023-01-28T12:53:24.787Z,1.60
2023-01-28T12:56:03.396Z,1.50
2023-01-28T12:58:43.088Z,1.40
2023-01-28T13:01:14.506Z,1.30
2023-01-28T13:03:53.527Z,1.30
2023-01-28T13:06:28.279Z,1.40
2023-01-28T13:09:10.337Z,1.30
2023-01-28T13:11:38.093Z,1.50
2023-01-28T13:14:05.898Z,1.70
2023-01-28T13:16:37.782Z,1.80
2023-01-28T13:19:39.390Z,1.80
2023-01-28T13:22:25.970Z,1.70
2023-01-28T13:24:52.584Z,1.70
2023-01-28T13:27:25.854Z,1.40
2023-01-28T13:30:05.305Z,1.30
2023-01-28T13:32:34.831Z,1.40
2023-01-28T13:35:32.835Z,1.60
2023-01-28T13:38:06.299Z,1.60
2023-01-28T13:40:33.383Z,1.60
2023-01-28T13:43:00.041Z,1.60
2023-01-28T13:45:28.730Z,1.60
2023-01-28T13:48:14.996Z,1.70
2023-01-28T13:50:43.537Z,1.70
2023-01-28T13:53:34.691Z,1.60
2023-01-28T13:56:06.463Z,1.50
2023-01-28T13:59:10.434Z,1.30
2023-01-28T14:02:08.213Z,1.30
2023-01-28T14:05:02.672Z,1.30
2023-01-28T14:07:54.713Z,1.20
2023-01-28T14:10:39.995Z,1.10
2023-01-28T14:13:20.275Z,1.00
2023-01-28T14:16:11.970Z,0.90
2023-01-28T14:18:44.379Z,0.90
2023-01-28T14:21:20.862Z,0.90
2023-01-28T14:23:54.597Z,0.80
2023-01-28T14:26:43.113Z,0.80
2023-01-28T14:29:31.415Z,0.80
2023-01-28T14:31:58.857Z,0.80
2023-01-28T14:34:34.386Z,0.80
2023-01-28T14:37:06.271Z,0.70
2023-01-28T14:39:44.594Z,0.70
2023-01-28T14:42:22.932Z,0.70
2023-01-28T14:45:00.940Z,0.70
2023-01-28T14:47:41.694Z,0.60
2023-01-28T14:50:08.321Z,0.50
2023-01-28T14:53:09.413Z,0.40
2023-01-28T14:56:03.066Z,0.20
2023-01-28T14:58:38.896Z,0.10
2023-01-28T15:01:05.768Z,0.00
2023-01-28T15:03:32.691Z,0.10
2023-01-28T15:06:30.727Z,0.10
2023-01-28T15:09:08.146Z,0.10
2023-01-28T15:11:40.440Z,0.10
2023-01-28T15:14:16.067Z,0.10
2023-01-28T15:16:48.677Z,0.20
2023-01-28T15:19:16.481Z,0.20
2023-01-28T15:21:45.502Z,0.20
2023-01-28T15:24:16.432Z,0.20
2023-01-28T15:26:47.401Z,0.20
2023-01-28T15:29:33.684Z,0.20
2023-01-28T15:32:02.071Z,0.10
2023-01-28T15:34:31.543Z,0.10
2023-01-28T15:36:59.958Z,0.10
2023-01-28T15:39:29.586Z,0.00
2023-01-28T15:42:00.173Z,-0.10
2023-01-28T15:44:37.015Z,-0.10
2023-01-28T15:47:15.234Z,0.00
2023-01-28T15:49:45.162Z,0.00
2023-01-28T15:52:12.811Z,0.00
2023-01-28T15:54:43.607Z,0.00
2023-01-28T15:57:30.805Z,-0.10
2023-01-28T16:00:11.178Z,-0.20
2023-01-28T16:02:49.839Z,-0.20
2023-01-28T16:05:34.481Z,-0.30
2023-01-28T16:08:09.309Z,-0.30
2023-01-28T16:10:36.250Z,-0.40
2023-01-28T16:13:16.223Z,-0.50
2023-01-28T16:15:48.114Z,-0.60
2023-01-28T16:18:51.683Z,-0.70
2023-01-28T16:21:45.447Z,-0.80
2023-01-28T16:24:27.642Z,-0.90
2023-01-28T16:26:59.410Z,-0.90
2023-01-28T16:29:28.375Z,-1.10
2023-01-28T16:31:57.185Z,-1.10
2023-01-28T16:34:24.693Z,-1.10
2023-01-28T16:36:51.328Z,-1.10
2023-01-28T16:39:17.904Z,-1.10
2023-01-28T16:41:46.916Z,-1.10
2023-01-28T16:44:14.503Z,-1.10
2023-01-28T16:46:41.316Z,-1.20
2023-01-28T16:49:08.309Z,-1.20
2023-01-28T16:51:36.930Z,-1.30
2023-01-28T16:54:04.928Z,-1.30
2023-01-28T16:56:47.353Z,-1.40
2023-01-28T16:59:15.802Z,-1.40
2023-01-28T17:01:44.381Z,-1.40
2023-01-28T17:04:12.877Z,-1.40
2023-01-28T17:06:43.672Z,-1.40
2023-01-28T17:09:11.738Z,-1.40
2023-01-28T17:11:40.385Z,-1.40
2023-01-28T17:14:07.075Z,-1.40
2023-01-28T17:16:33.719Z,-1.40
2023-01-28T17:19:00.414Z,-1.50
2023-01-28T17:21:27.081Z,-1.60
2023-01-28T17:23:53.732Z,-1.60
2023-01-28T17:26:20.502Z,-1.70
2023-01-28T17:28:53.258Z,-1.90
2023-01-28T17:31:20.353Z,-1.90
2023-01-28T17:33:47.240Z,-1.80
2023-01-28T17:36:14.296Z,-1.90
2023-01-28T17:38:45.130Z,-1.90
2023-01-28T17:41:12.923Z,-2.10
2023-01-28T17:43:39.607Z,-2.00
2023-01-28T17:46:17.092Z,-2.10
2023-01-28T17:48:46.674Z,-2.00
2023-01-28T17:51:16.980Z,-2.20
2023-01-28T17:53:51.452Z,-2.20
2023-01-28T17:56:20.489Z,-2.30
2023-01-28T17:58:51.655Z,-2.40
2023-01-28T18:01:18.562Z,-2.50
2023-01-28T18:03:45.349Z,-2.50
2023-01-28T18:06:11.963Z,-2.70
2023-01-28T18:08:38.703Z,-2.70
2023-01-28T18:11:13.890Z,-2.80
2023-01-28T18:13:42.062Z,-2.70
2023-01-28T18:16:14.835Z,-2.70
2023-01-28T18:18:42.105Z,-2.90
2023-01-28T18:21:20.434Z,-3.00
2023-01-28T18:23:47.045Z,-3.00
2023-01-28T18:26:13.794Z,-3.10
2023-01-28T18:28:40.354Z,-3.20
2023-01-28T18:31:07.897Z,-3.20
2023-01-28T18:33:34.675Z,-3.20
2023-01-28T18:36:01.346Z,-3.20
2023-01-28T18:38:27.937Z,-3.20
2023-01-28T18:40:55.874Z,-3.30
2023-01-28T18:43:23.112Z,-3.30
2023-01-28T18:45:51.917Z,-3.30
2023-01-28T18:48:18.822Z,-3.20
2023-01-28T18:50:52.792Z,-3.40
2023-01-28T18:53:20.525Z,-3.40
2023-01-28T18:55:47.751Z,-3.40
2023-01-28T18:58:14.648Z,-3.50
2023-01-28T19:00:41.332Z,-3.70
2023-01-28T19:03:07.969Z,-3.80
2023-01-28T19:05:38.899Z,-3.50
2023-01-28T19:08:07.006Z,-3.40
2023-01-28T19:10:33.891Z,-3.60
2023-01-28T19:13:00.656Z,-3.50
2023-01-28T19:15:27.377Z,-3.50
2023-01-28T19:17:54.169Z,-3.50
2023-01-28T19:20:20.776Z,-3.60
2023-01-28T19:22:48.187Z,-3.80
2023-01-28T19:25:16.245Z,-3.90
2023-01-28T19:27:43.145Z,-3.90
2023-01-28T19:30:10.434Z,-3.80
2023-01-28T19:32:37.128Z,-3.70
2023-01-28T19:35:04.121Z,-3.80
2023-01-28T19:37:30.932Z,-3.90
2023-01-28T19:39:57.633Z,-4.10
2023-01-28T19:42:24.892Z,-4.00
2023-01-28T19:44:51.554Z,-4.10
2023-01-28T19:47:18.136Z,-4.20
2023-01-28T19:49:44.727Z,-4.20
2023-01-28T19:52:11.365Z,-4.30
2023-01-28T19:54:38.007Z,-4.40
2023-01-28T19:57:04.665Z,-4.40
2023-01-28T19:59:31.299Z,-4.40
2023-01-28T20:01:57.898Z,-4.40
2023-01-28T20:04:24.919Z,-4.30
2023-01-28T20:06:51.497Z,-4.30
2023-01-28T20:09:22.275Z,-4.40
2023-01-28T20:11:48.903Z,-4.50
2023-01-28T20:14:16.001Z,-4.60
2023-01-28T20:16:42.596Z,-4.60
2023-01-28T20:19:14.694Z,-4.70
2023-01-28T20:21:41.592Z,-4.80
2023-01-28T20:24:11.131Z,-4.80
2023-01-28T20:26:38.772Z,-4.80
2023-01-28T20:29:11.305Z,-4.80
2023-01-28T20:31:39.512Z,-4.80
2023-01-28T20:34:06.428Z,-4.90
2023-01-28T20:36:33.102Z,-4.90
2023-01-28T20:39:00.544Z,-4.80
2023-01-28T20:41:27.477Z,-4.80
2023-01-28T20:43:56.075Z,-4.90
2023-01-28T20:46:25.490Z,-4.80
2023-01-28T20:48:53.949Z,-4.70
2023-01-28T20:51:23.593Z,-4.90
2023-01-28T20:53:50.924Z,-4.90
2023-01-28T20:56:20.498Z,-5.00
2023-01-28T20:58:49.230Z,-5.00
2023-01-28T21:01:17.587Z,-4.90
2023-01-28T21:03:44.211Z,-4.90
2023-01-28T21:06:10.804Z,-4.70
2023-01-28T21:08:37.504Z,-5.00
2023-01-28T21:11:05.633Z,-5.00
2023-01-28T21:13:32.602Z,-5.10
2023-01-28T21:15:59.832Z,-5.00
2023-01-28T21:18:26.745Z,-4.90
2023-01-28T21:20:54.825Z,-5.00
2023-01-28T21:23:25.092Z,-5.20
2023-01-28T21:25:52.363Z,-5.30
2023-01-28T21:28:19.821Z,-5.20
2023-01-28T21:30:46.857Z,-5.20
2023-01-28T21:33:13.660Z,-5.10
2023-01-28T21:35:43.118Z,-5.10
2023-01-28T21:38:10.612Z,-5.20
2023-01-28T21:40:38.184Z,-5.10
2023-01-28T21:43:05.032Z,-4.90
2023-01-28T21:45:31.689Z,-4.80
2023-01-28T21:47:58.407Z,-4.80
2023-01-28T21:50:25.105Z,-4.80
2023-01-28T21:52:51.983Z,-4.90
2023-01-28T21:55:19.065Z,-4.90
2023-01-28T21:57:45.663Z,-4.90
2023-01-28T22:00:12.998Z,-4.90
2023-01-28T22:02:39.896Z,-4.90
2023-01-28T22:05:07.068Z,-5.00
2023-01-28T22:07:33.755Z,-4.90
2023-01-28T22:10:00.394Z,-4.80
2023-01-28T22:12:27.958Z,-4.90
2023-01-28T22:14:54.623Z,-4.80
2023-01-28T22:17:21.382Z,-4.70
2023-01-28T22:19:48.144Z,-4.80
2023-01-28T22:22:16.053Z,-4.60
2023-01-28T22:24:42.860Z,-4.50
2023-01-28T22:27:09.566Z,-4.50
2023-01-28T22:29:36.228Z,-4.50
2023-01-28T22:32:04.799Z,-4.50
2023-01-28T22:34:31.742Z,-4.50
2023-01-28T22:36:58.517Z,-4.50
2023-01-28T22:39:25.334Z,-4.40
2023-01-28T22:41:52.007Z,-4.50
2023-01-28T22:44:19.840Z,-4.60
2023-01-28T22:46:47.104Z,-4.60
2023-01-28T22:49:14.880Z,-4.60
2023-01-28T22:51:41.923Z,-4.70
2023-01-28T22:54:10.668Z,-4.70
2023-01-28T22:56:37.767Z,-4.70
2023-01-28T22:59:05.235Z,-4.80
2023-01-28T23:01:32.865Z,-4.70
2023-01-28T23:03:59.674Z,-4.90
2023-01-28T23:06:27.984Z,-4.80
2023-01-28T23:08:56.148Z,-5.00
2023-01-28T23:11:27.028Z,-4.90
2023-01-28T23:14:14.905Z,-5.10
2023-01-28T23:17:00.540Z,-5.10
2023-01-28T23:19:45.890Z,-5.10
2023-01-28T23:22:38.330Z,-5.10
2023-01-28T23:25:05.611Z,-5.20
2023-01-28T23:27:32.296Z,-5.20
2023-01-28T23:29:59.006Z,-5.20
2023-01-28T23:32:26.208Z,-5.30
2023-01-28T23:34:52.974Z,-5.20
2023-01-28T23:37:19.661Z,-5.20
2023-01-28T23:39:46.588Z,-5.30
2023-01-28T23:42:16.805Z,-5.20
2023-01-28T23:44:43.753Z,-5.30
2023-01-28T23:47:11.078Z,-5.40
2023-01-28T23:49:38.245Z,-5.20
2023-01-28T23:52:05.861Z,-5.30
2023-01-28T23:54:33.087Z,-5.40
2023-01-28T23:57:00.524Z,-5.40
2023-01-28T23:59:27.352Z,-5.40
